Time;durP1;ratioP1;P1;durP2;ratioP2;P2;SDS_P1;SDS_P2;PMS_P1;PMS_P2;Temp;Humidity;BMP_temperature;BMP_pressure;BME280_temperature;BME280_humidity;BME280_pressure;Samples;Min_cycle;Max_cycle;Signal;HPM_P1;HPM_P2
2022/10/29 00:02:20;;;;;;;1.50;0.57;;;26.50;41.30;;;;;;5028052;28;20112;-68
2022/10/29 00:04:47;;;;;;;1.17;0.30;;;26.70;41.40;;;;;;5026193;28;20045;-68
2022/10/29 00:07:14;;;;;;;1.48;0.40;;;26.70;40.30;;;;;;5029630;28;20105;-69
2022/10/29 00:09:41;;;;;;;2.00;0.30;;;26.40;39.50;;;;;;5029573;28;20033;-69
2022/10/29 00:12:09;;;;;;;1.08;0.30;;;26.50;40.60;;;;;;5026974;28;20021;-68
2022/10/29 00:14:36;;;;;;;1.20;0.40;;;26.40;40.70;;;;;;5030866;28;20028;-67
2022/10/29 00:17:03;;;;;;;1.58;0.35;;;26.70;38.80;;;;;;5034815;28;20041;-67
2022/10/29 00:19:30;;;;;;;11.90;0.75;;;26.60;39.50;;;;;;5034136;28;20053;-67
2022/10/29 00:21:58;;;;;;;4.93;0.70;;;26.70;38.50;;;;;;5028237;28;20175;-67
2022/10/29 00:24:25;;;;;;;2.45;0.45;;;26.30;37.90;;;;;;5030703;28;20021;-67
2022/10/29 00:26:52;;;;;;;2.63;0.38;;;26.10;39.40;;;;;;5028011;28;20029;-68
2022/10/29 00:29:19;;;;;;;4.40;0.80;;;26.10;38.50;;;;;;5028281;28;20052;-67
2022/10/29 00:31:48;;;;;;;3.90;0.57;;;26.20;40.70;;;;;;5028611;28;20031;-67
2022/10/29 00:34:15;;;;;;;3.83;0.40;;;26.40;41.90;;;;;;5039967;28;20026;-66
2022/10/29 00:36:43;;;;;;;1.67;0.52;;;26.60;42.70;;;;;;5029171;28;20044;-67
2022/10/29 00:39:16;;;;;;;1.08;0.30;;;27.00;39.30;;;;;;5035732;28;20034;-66
2022/10/29 00:41:44;;;;;;;7.78;1.70;;;27.20;39.40;;;;;;5026771;28;20091;-65
2022/10/29 00:44:37;;;;;;;4.57;0.60;;;27.00;37.80;;;;;;5027648;28;20018;-66
2022/10/29 00:47:20;;;;;;;2.38;0.32;;;27.10;40.80;;;;;;5023259;28;20028;-66
2022/10/29 00:49:52;;;;;;;1.20;0.50;;;27.50;38.20;;;;;;5028708;28;20025;-65
2022/10/29 00:52:21;;;;;;;6.90;0.90;;;27.50;36.90;;;;;;5036853;28;20044;-66
2022/10/29 00:54:50;;;;;;;2.15;0.45;;;27.40;40.10;;;;;;5027162;28;20473;-67
2022/10/29 00:57:30;;;;;;;0.80;0.30;;;27.40;37.90;;;;;;5028021;28;20091;-67
2022/10/29 00:59:57;;;;;;;1.23;0.40;;;27.20;38.00;;;;;;5030526;28;20021;-66
2022/10/29 01:02:25;;;;;;;1.45;0.57;;;26.80;38.40;;;;;;5027923;28;20033;-66
2022/10/29 01:04:53;;;;;;;1.83;0.40;;;26.90;39.50;;;;;;5028531;28;20033;-65
2022/10/29 01:07:21;;;;;;;2.60;0.40;;;27.10;38.00;;;;;;5027769;28;20022;-65
2022/10/29 01:09:49;;;;;;;0.38;0.35;;;27.10;37.30;;;;;;5013094;28;20398;-65
2022/10/29 01:12:25;;;;;;;1.17;0.40;;;26.90;38.30;;;;;;5027012;28;20025;-64
2022/10/29 01:15:28;;;;;;;4.07;0.30;;;27.10;37.90;;;;;;5028516;28;20036;-64
2022/10/29 01:18:08;;;;;;;1.80;0.38;;;27.20;38.00;;;;;;5018626;28;20034;-64
2022/10/29 01:20:57;;;;;;;2.25;0.30;;;27.30;38.10;;;;;;5027494;28;20107;-70
2022/10/29 01:23:40;;;;;;;2.08;0.75;;;27.30;39.20;;;;;;5030323;28;20148;-66
2022/10/29 01:26:22;;;;;;;2.47;0.50;;;27.30;39.80;;;;;;5027617;28;20075;-66
2022/10/29 01:28:52;;;;;;;8.25;0.93;;;27.30;38.30;;;;;;5025240;28;20037;-66
2022/10/29 01:31:37;;;;;;;1.27;0.30;;;27.40;37.40;;;;;;5045430;28;20025;-68
2022/10/29 01:34:30;;;;;;;0.70;0.50;;;27.20;39.10;;;;;;5041539;28;20087;-69
2022/10/29 01:37:13;;;;;;;1.75;0.93;;;27.30;38.80;;;;;;5024077;28;20030;-64
2022/10/29 01:39:54;;;;;;;1.08;0.30;;;27.70;37.40;;;;;;5027363;28;20109;-64
2022/10/29 01:42:31;;;;;;;0.50;0.30;;;27.90;38.90;;;;;;5023970;28;20029;-65
2022/10/29 01:45:19;;;;;;;2.10;0.90;;;28.00;36.80;;;;;;5027174;28;20032;-64
2022/10/29 01:48:05;;;;;;;7.15;0.82;;;27.90;39.80;;;;;;5018404;28;20034;-65
2022/10/29 01:50:35;;;;;;;2.65;1.05;;;28.00;37.50;;;;;;5017054;28;20124;-65
2022/10/29 01:53:05;;;;;;;2.03;0.45;;;28.00;39.70;;;;;;5029921;28;20040;-67
2022/10/29 01:55:36;;;;;;;1.77;0.73;;;28.00;37.10;;;;;;5029379;28;20037;-68
2022/10/29 01:58:06;;;;;;;1.83;0.30;;;28.00;36.30;;;;;;5029210;28;20036;-66
2022/10/29 02:01:01;;;;;;;2.35;0.40;;;28.30;37.90;;;;;;5028586;28;20063;-63
2022/10/29 02:03:37;;;;;;;1.85;0.30;;;28.50;39.70;;;;;;5028150;28;20124;-63
2022/10/29 02:06:19;;;;;;;0.70;0.30;;;28.70;38.60;;;;;;5029219;28;20026;-64
2022/10/29 02:09:12;;;;;;;1.15;0.25;;;28.80;36.90;;;;;;5029274;28;20048;-63
2022/10/29 02:12:07;;;;;;;1.42;0.30;;;29.00;38.90;;;;;;5028138;28;20044;-62
2022/10/29 02:14:40;;;;;;;2.30;0.38;;;29.10;38.30;;;;;;5028227;28;20022;-64
2022/10/29 02:17:07;;;;;;;2.20;0.77;;;29.10;38.10;;;;;;5031716;28;20038;-65
2022/10/29 02:19:36;;;;;;;1.52;0.50;;;28.90;36.30;;;;;;5032773;28;20018;-63
2022/10/29 02:22:03;;;;;;;6.25;0.47;;;28.80;37.00;;;;;;5030527;28;20465;-63
2022/10/29 02:24:30;;;;;;;1.17;0.50;;;28.70;39.20;;;;;;5030457;28;20049;-65
2022/10/29 02:26:58;;;;;;;1.98;0.30;;;28.90;37.60;;;;;;5035284;28;20144;-65
2022/10/29 02:29:25;;;;;;;1.70;0.60;;;29.00;38.30;;;;;;5032743;28;20071;-65
2022/10/29 02:31:52;;;;;;;0.20;0.20;;;28.90;36.40;;;;;;5041916;28;20123;-63
2022/10/29 02:34:19;;;;;;;2.22;0.70;;;28.70;36.00;;;;;;5043819;28;20025;-65
2022/10/29 02:36:46;;;;;;;1.48;0.47;;;28.90;35.60;;;;;;5031517;28;20033;-65
2022/10/29 02:39:14;;;;;;;0.82;0.50;;;28.90;36.60;;;;;;5032352;28;20022;-66
2022/10/29 02:41:41;;;;;;;1.52;0.30;;;29.30;38.30;;;;;;5049965;28;20044;-66
2022/10/29 02:44:08;;;;;;;1.10;0.22;;;29.10;35.60;;;;;;5042622;28;20549;-66
2022/10/29 02:46:38;;;;;;;2.33;0.30;;;29.00;35.70;;;;;;5031082;28;20036;-63
2022/10/29 02:49:06;;;;;;;0.68;0.20;;;29.00;36.20;;;;;;5031315;28;20025;-65
2022/10/29 02:51:33;;;;;;;1.38;0.40;;;29.00;34.80;;;;;;5031026;28;20051;-65
2022/10/29 02:54:01;;;;;;;3.53;0.63;;;29.00;36.20;;;;;;5044067;28;20024;-63
2022/10/29 02:56:28;;;;;;;2.05;0.50;;;29.10;35.50;;;;;;5050807;28;20501;-63
2022/10/29 02:58:55;;;;;;;1.02;0.40;;;29.10;34.10;;;;;;5035001;28;20051;-63
2022/10/29 03:01:22;;;;;;;0.77;0.20;;;29.30;36.60;;;;;;5041457;28;20056;-63
2022/10/29 03:03:50;;;;;;;1.65;0.30;;;29.40;35.60;;;;;;5041453;28;20815;-65
2022/10/29 03:06:18;;;;;;;0.52;0.20;;;29.40;35.20;;;;;;5010011;28;20061;-64
2022/10/29 03:08:46;;;;;;;2.75;0.30;;;29.40;34.40;;;;;;5028841;28;20025;-63
2022/10/29 03:11:14;;;;;;;1.10;0.30;;;29.30;33.90;;;;;;5029614;28;20025;-63
2022/10/29 03:13:41;;;;;;;0.93;0.30;;;29.10;32.00;;;;;;5028207;28;20030;-64
2022/10/29 03:16:09;;;;;;;1.40;0.30;;;29.00;34.30;;;;;;5029435;28;20394;-63
2022/10/29 03:18:36;;;;;;;2.85;0.40;;;29.10;35.80;;;;;;5027683;28;20346;-64
2022/10/29 03:21:04;;;;;;;0.80;0.20;;;28.90;34.20;;;;;;5027249;28;20080;-64
2022/10/29 03:23:31;;;;;;;10.65;0.50;;;28.60;34.90;;;;;;5030713;28;20032;-62
2022/10/29 03:25:58;;;;;;;0.10;0.10;;;28.60;34.00;;;;;;5037525;28;20021;-64
2022/10/29 03:28:29;;;;;;;0.55;0.40;;;28.50;32.90;;;;;;5036976;28;20025;-64
2022/10/29 03:30:57;;;;;;;4.60;1.13;;;28.40;33.20;;;;;;5043010;28;20025;-64
2022/10/29 03:33:26;;;;;;;1.52;0.40;;;28.50;34.60;;;;;;5033263;28;20037;-67
2022/10/29 03:36:01;;;;;;;0.60;0.30;;;28.70;35.10;;;;;;5031181;28;20555;-65
2022/10/29 03:38:28;;;;;;;0.68;0.30;;;28.50;33.10;;;;;;5030559;28;20052;-64
2022/10/29 03:40:56;;;;;;;0.60;0.30;;;28.80;34.50;;;;;;5030556;28;20112;-63
2022/10/29 03:43:23;;;;;;;0.65;0.10;;;29.10;34.70;;;;;;5028749;28;20115;-65
2022/10/29 03:45:55;;;;;;;4.38;0.50;;;29.20;34.10;;;;;;5030040;28;20025;-62
2022/10/29 03:48:23;;;;;;;1.20;0.52;;;29.10;32.90;;;;;;5026899;28;20112;-62
2022/10/29 03:50:55;;;;;;;6.97;3.10;;;28.70;34.60;;;;;;5026114;28;20509;-64
2022/10/29 03:53:23;;;;;;;1.02;0.50;;;28.50;33.10;;;;;;5021911;28;20421;-62
2022/10/29 03:55:55;;;;;;;1.52;0.85;;;28.20;32.50;;;;;;5024736;28;20116;-61
2022/10/29 03:58:23;;;;;;;3.03;0.43;;;28.30;34.40;;;;;;5024899;28;20158;-63
2022/10/29 04:01:02;;;;;;;1.77;0.32;;;28.50;35.60;;;;;;5023758;28;20033;-63
2022/10/29 04:03:31;;;;;;;2.13;0.80;;;28.70;35.00;;;;;;5013276;28;20037;-62
2022/10/29 04:06:00;;;;;;;1.52;0.55;;;28.60;35.10;;;;;;5025776;28;20057;-62
2022/10/29 04:08:27;;;;;;;0.95;0.40;;;28.70;34.70;;;;;;5027534;28;20022;-63
2022/10/29 04:10:55;;;;;;;0.65;0.30;;;28.60;36.00;;;;;;5026725;28;20029;-62
2022/10/29 04:13:22;;;;;;;0.73;0.30;;;28.70;36.20;;;;;;5025922;28;20033;-63
2022/10/29 04:15:52;;;;;;;4.00;0.70;;;28.70;37.00;;;;;;5026600;28;20516;-63
2022/10/29 04:18:19;;;;;;;1.70;0.45;;;28.90;36.40;;;;;;5028080;28;20036;-67
2022/10/29 04:20:47;;;;;;;2.60;0.65;;;28.80;35.90;;;;;;5025152;28;20091;-63
2022/10/29 04:23:14;;;;;;;0.40;0.30;;;28.70;35.90;;;;;;5021931;28;20060;-63
2022/10/29 04:25:41;;;;;;;1.67;1.08;;;28.70;36.40;;;;;;5026065;28;20031;-63
2022/10/29 04:28:08;;;;;;;0.75;0.30;;;28.80;37.00;;;;;;5024793;28;20457;-63
2022/10/29 04:30:35;;;;;;;2.45;1.13;;;28.60;36.60;;;;;;5027525;28;20375;-64
2022/10/29 04:33:03;;;;;;;2.25;0.75;;;28.50;37.00;;;;;;5025641;28;20091;-66
2022/10/29 04:35:30;;;;;;;1.00;0.50;;;28.40;36.70;;;;;;5026793;28;20021;-63
2022/10/29 04:37:57;;;;;;;2.65;0.68;;;28.10;36.40;;;;;;5026113;28;20029;-63
2022/10/29 04:40:24;;;;;;;3.05;0.30;;;28.00;36.30;;;;;;5025101;28;20116;-64
2022/10/29 04:42:52;;;;;;;1.55;0.38;;;28.00;36.80;;;;;;5023091;28;20052;-63
2022/10/29 04:45:19;;;;;;;6.53;4.15;;;28.10;37.70;;;;;;5026075;28;20287;-63
2022/10/29 04:47:46;;;;;;;3.50;0.45;;;28.20;36.60;;;;;;5037571;28;20132;-64
2022/10/29 04:50:13;;;;;;;0.82;0.40;;;28.00;36.20;;;;;;5033528;28;20037;-66
2022/10/29 04:52:41;;;;;;;1.60;0.60;;;28.10;36.70;;;;;;5039780;28;20053;-65
2022/10/29 04:55:08;;;;;;;0.73;0.30;;;28.10;37.60;;;;;;5027929;28;20159;-65
2022/10/29 04:57:35;;;;;;;1.92;0.40;;;28.10;36.80;;;;;;5024146;28;20033;-65
2022/10/29 05:00:03;;;;;;;3.45;1.65;;;27.90;37.70;;;;;;5045434;28;20036;-66
2022/10/29 05:02:30;;;;;;;1.55;0.43;;;27.80;37.50;;;;;;5048090;28;20512;-64
2022/10/29 05:04:58;;;;;;;0.80;0.40;;;27.70;38.40;;;;;;5029416;28;20518;-66
2022/10/29 05:07:25;;;;;;;3.00;0.40;;;27.70;38.70;;;;;;5029606;28;20021;-66
2022/10/29 05:09:52;;;;;;;4.53;0.63;;;27.60;38.80;;;;;;5023194;28;20037;-65
2022/10/29 05:12:19;;;;;;;5.07;0.82;;;27.60;38.90;;;;;;5029749;28;20446;-67
2022/10/29 05:14:46;;;;;;;3.30;0.47;;;27.60;38.70;;;;;;5026573;28;20108;-65
2022/10/29 05:17:14;;;;;;;1.35;0.45;;;27.60;39.00;;;;;;5027064;28;20490;-66
2022/10/29 05:19:41;;;;;;;0.30;0.30;;;27.70;38.00;;;;;;5025852;28;20134;-62
2022/10/29 05:22:08;;;;;;;0.88;0.47;;;27.60;38.20;;;;;;5022948;28;20029;-61
2022/10/29 05:24:35;;;;;;;2.38;0.70;;;27.50;38.10;;;;;;5026218;28;20429;-60
2022/10/29 05:27:06;;;;;;;0.50;0.20;;;27.40;38.00;;;;;;5026442;28;20064;-60
2022/10/29 05:29:33;;;;;;;1.67;0.45;;;27.30;37.30;;;;;;5025875;28;20021;-61
2022/10/29 05:32:00;;;;;;;0.52;0.25;;;27.30;38.30;;;;;;5023592;28;20025;-61
2022/10/29 05:34:27;;;;;;;2.75;0.30;;;27.30;39.20;;;;;;5025624;28;20029;-60
2022/10/29 05:36:55;;;;;;;3.78;0.50;;;27.10;37.30;;;;;;5029411;28;20033;-62
2022/10/29 05:39:22;;;;;;;1.92;0.50;;;26.90;37.80;;;;;;5025523;28;20048;-62
2022/10/29 05:41:49;;;;;;;0.40;0.20;;;26.70;37.50;;;;;;5036463;28;20018;-62
2022/10/29 05:44:16;;;;;;;0.95;0.40;;;26.30;38.90;;;;;;5030402;28;20030;-63
2022/10/29 05:46:43;;;;;;;1.23;0.30;;;26.20;38.40;;;;;;5027960;28;20440;-62
2022/10/29 05:49:12;;;;;;;4.38;0.55;;;26.20;38.50;;;;;;5033084;28;20021;-64
2022/10/29 05:51:39;;;;;;;5.63;0.40;;;26.20;39.50;;;;;;5022226;28;20063;-61
2022/10/29 05:54:06;;;;;;;2.35;0.50;;;26.30;39.90;;;;;;5018327;28;20026;-62
2022/10/29 05:56:33;;;;;;;1.92;0.60;;;26.30;39.70;;;;;;5032939;28;20367;-62
2022/10/29 05:59:01;;;;;;;2.40;0.50;;;26.20;39.90;;;;;;5046870;28;20049;-62
2022/10/29 06:02:04;;;;;;;1.00;0.50;;;26.20;39.20;;;;;;5030522;28;20489;-61
2022/10/29 06:04:34;;;;;;;0.88;0.20;;;26.20;38.60;;;;;;5026526;28;20044;-62
2022/10/29 06:07:01;;;;;;;0.80;0.30;;;26.10;38.90;;;;;;5029662;28;20032;-62
2022/10/29 06:09:28;;;;;;;1.90;0.30;;;25.80;39.10;;;;;;5038755;28;20043;-61
2022/10/29 06:11:56;;;;;;;0.57;0.32;;;25.80;39.10;;;;;;5017502;28;20036;-61
2022/10/29 06:14:23;;;;;;;1.52;0.35;;;25.80;39.40;;;;;;5036037;28;20578;-61
2022/10/29 06:16:50;;;;;;;3.92;0.50;;;25.70;38.50;;;;;;5025019;28;20037;-63
2022/10/29 06:19:18;;;;;;;0.93;0.40;;;25.50;38.80;;;;;;5018958;28;20022;-60
2022/10/29 06:21:45;;;;;;;0.77;0.40;;;25.30;39.10;;;;;;5014954;28;20033;-61
2022/10/29 06:24:12;;;;;;;3.70;0.60;;;25.30;39.70;;;;;;5024254;28;20030;-61
2022/10/29 06:26:40;;;;;;;1.42;0.28;;;25.30;40.00;;;;;;5022749;28;20076;-62
2022/10/29 06:29:07;;;;;;;1.65;0.40;;;25.30;39.30;;;;;;5024639;28;20022;-62
2022/10/29 06:31:34;;;;;;;1.80;0.60;;;25.30;39.20;;;;;;5015881;28;20048;-64
2022/10/29 06:34:02;;;;;;;1.10;0.50;;;25.30;38.90;;;;;;5021897;28;20026;-62
2022/10/29 06:36:29;;;;;;;1.60;0.50;;;25.20;39.10;;;;;;5015542;28;20038;-61
2022/10/29 06:38:56;;;;;;;1.40;0.25;;;25.20;38.90;;;;;;5014649;28;20034;-61
2022/10/29 06:41:26;;;;;;;1.98;0.57;;;25.10;38.50;;;;;;5025045;28;20025;-61
2022/10/29 06:43:53;;;;;;;2.40;0.40;;;25.00;38.10;;;;;;5021567;28;20117;-61
2022/10/29 06:46:20;;;;;;;2.28;0.50;;;24.70;39.00;;;;;;5024071;28;20029;-61
2022/10/29 06:48:47;;;;;;;4.18;0.80;;;24.60;39.70;;;;;;5022486;28;20021;-61
2022/10/29 06:51:15;;;;;;;2.53;0.60;;;24.50;39.80;;;;;;5012921;28;20045;-61
2022/10/29 06:53:42;;;;;;;1.45;0.40;;;24.50;40.50;;;;;;5021950;28;20376;-62
2022/10/29 06:56:09;;;;;;;3.17;0.88;;;24.50;39.20;;;;;;5018012;28;20036;-62
2022/10/29 06:58:36;;;;;;;1.38;0.50;;;24.40;39.30;;;;;;5014978;28;20058;-61
2022/10/29 07:01:04;;;;;;;2.28;0.60;;;24.40;39.20;;;;;;5011802;28;20052;-61
2022/10/29 07:03:31;;;;;;;2.28;0.60;;;24.30;40.10;;;;;;5008509;28;20040;-61
2022/10/29 07:05:59;;;;;;;2.47;0.47;;;24.30;39.60;;;;;;5010414;28;20359;-62
2022/10/29 07:08:27;;;;;;;3.58;0.60;;;24.20;40.70;;;;;;5021448;28;20022;-61
2022/10/29 07:10:55;;;;;;;1.05;0.40;;;24.10;40.30;;;;;;5027348;28;20033;-61
2022/10/29 07:13:22;;;;;;;1.75;0.70;;;23.90;40.40;;;;;;5029088;28;20481;-60
2022/10/29 07:15:49;;;;;;;1.00;0.40;;;23.70;39.70;;;;;;5028786;28;20036;-60
2022/10/29 07:18:16;;;;;;;4.15;0.60;;;23.50;40.30;;;;;;5028398;28;20092;-60
2022/10/29 07:20:44;;;;;;;3.25;0.60;;;23.30;40.70;;;;;;5029156;28;20021;-60
2022/10/29 07:23:13;;;;;;;1.27;0.40;;;23.20;41.20;;;;;;5028836;28;20570;-61
2022/10/29 07:25:41;;;;;;;0.20;0.20;;;23.10;40.80;;;;;;5028788;28;20025;-61
2022/10/29 07:28:15;;;;;;;3.97;0.57;;;22.90;41.10;;;;;;5027768;28;20045;-59
2022/10/29 07:30:43;;;;;;;2.00;0.50;;;22.70;41.00;;;;;;5027132;28;20033;-60
2022/10/29 07:33:11;;;;;;;1.13;0.38;;;22.60;41.00;;;;;;5027188;28;20048;-61
2022/10/29 07:35:38;;;;;;;3.20;0.63;;;22.50;41.30;;;;;;5028440;28;20025;-60
2022/10/29 07:38:08;;;;;;;1.02;0.50;;;22.40;41.10;;;;;;5028007;28;20117;-61
2022/10/29 07:40:35;;;;;;;2.00;0.68;;;22.30;41.60;;;;;;5029225;28;20120;-67
2022/10/29 07:43:02;;;;;;;2.10;0.80;;;22.20;41.90;;;;;;5028724;28;20025;-60
2022/10/29 07:45:30;;;;;;;1.92;0.70;;;22.00;43.30;;;;;;5027436;28;20040;-60
2022/10/29 07:48:01;;;;;;;1.48;0.52;;;21.90;43.10;;;;;;5028485;28;20025;-60
2022/10/29 07:50:30;;;;;;;3.05;0.90;;;21.70;43.00;;;;;;5028940;28;20025;-60
2022/10/29 07:53:01;;;;;;;4.75;0.60;;;21.60;43.70;;;;;;5029547;28;20512;-61
2022/10/29 07:55:29;;;;;;;2.50;0.77;;;21.50;43.40;;;;;;5027213;28;20032;-61
2022/10/29 07:57:57;;;;;;;4.05;1.23;;;21.40;44.10;;;;;;5028832;28;20021;-60
2022/10/29 08:00:29;;;;;;;1.58;0.82;;;21.20;44.40;;;;;;5028224;28;20063;-60
2022/10/29 08:02:56;;;;;;;1.90;0.75;;;21.10;44.70;;;;;;5028316;28;20021;-60
2022/10/29 08:05:26;;;;;;;1.42;0.80;;;21.00;45.40;;;;;;5028480;28;20018;-60
2022/10/29 08:07:54;;;;;;;1.45;0.52;;;20.90;45.20;;;;;;5028575;28;20025;-60
2022/10/29 08:10:22;;;;;;;1.45;0.70;;;20.80;45.90;;;;;;5027175;28;20069;-60
2022/10/29 08:12:54;;;;;;;3.70;0.52;;;20.70;45.50;;;;;;5028145;28;20087;-60
2022/10/29 08:15:22;;;;;;;3.60;1.08;;;20.60;46.20;;;;;;5027535;28;20029;-59
2022/10/29 08:17:50;;;;;;;1.65;0.63;;;20.50;46.60;;;;;;5027750;28;20116;-60
2022/10/29 08:20:18;;;;;;;2.63;0.65;;;20.40;46.40;;;;;;5028034;28;20033;-60
2022/10/29 08:22:45;;;;;;;2.47;0.60;;;20.30;47.20;;;;;;5027873;28;20024;-59
2022/10/29 08:25:14;;;;;;;3.17;0.63;;;20.10;47.00;;;;;;5027210;28;20059;-60
2022/10/29 08:27:41;;;;;;;1.02;0.63;;;20.10;46.80;;;;;;5027595;28;20025;-60
2022/10/29 08:30:11;;;;;;;0.80;0.50;;;20.10;47.20;;;;;;5027535;28;20108;-60
2022/10/29 08:32:46;;;;;;;0.93;0.57;;;20.00;47.20;;;;;;5027744;28;20055;-60
2022/10/29 08:35:14;;;;;;;1.50;0.60;;;19.90;47.20;;;;;;5027530;28;20036;-60
2022/10/29 08:37:45;;;;;;;1.85;0.80;;;19.80;47.50;;;;;;5026512;28;20130;-59
2022/10/29 08:40:37;;;;;;;1.42;0.60;;;19.80;48.50;;;;;;5027493;28;20033;-60
2022/10/29 08:43:29;;;;;;;2.50;0.85;;;19.70;48.50;;;;;;5028022;28;20111;-61
2022/10/29 08:45:57;;;;;;;2.50;0.90;;;19.70;48.10;;;;;;5026486;28;20168;-60
2022/10/29 08:48:45;;;;;;;2.60;0.60;;;19.60;48.40;;;;;;5027163;28;20782;-60
2022/10/29 08:51:18;;;;;;;1.83;0.55;;;19.50;48.30;;;;;;5025617;28;20519;-60
2022/10/29 08:53:51;;;;;;;1.40;0.63;;;19.50;48.10;;;;;;5027767;28;20053;-60
2022/10/29 08:56:25;;;;;;;0.80;0.43;;;19.40;48.70;;;;;;5027465;28;20385;-60
2022/10/29 08:59:07;;;;;;;1.30;0.68;;;19.30;48.50;;;;;;5027468;28;20054;-60
2022/10/29 09:01:36;;;;;;;1.48;0.52;;;19.20;49.10;;;;;;5026153;28;20255;-60
2022/10/29 09:04:12;;;;;;;1.02;0.40;;;19.20;48.10;;;;;;5032433;28;20036;-60
2022/10/29 09:07:07;;;;;;;2.65;0.68;;;19.30;48.40;;;;;;5007571;28;20180;-59
2022/10/29 09:09:50;;;;;;;1.17;0.57;;;19.20;48.60;;;;;;5026022;28;20119;-59
2022/10/29 09:13:06;;;;;;;3.28;0.68;;;19.00;49.00;;;;;;5025454;28;20043;-60
2022/10/29 09:15:53;;;;;;;1.27;0.50;;;19.00;49.10;;;;;;5043087;28;20116;-60
2022/10/29 09:18:39;;;;;;;3.72;0.60;;;18.90;48.90;;;;;;5026699;28;20404;-59
2022/10/29 09:21:27;;;;;;;0.98;0.52;;;18.80;49.20;;;;;;5025198;28;20029;-60
2022/10/29 09:24:14;;;;;;;1.27;0.50;;;18.80;49.80;;;;;;5019518;28;20033;-59
2022/10/29 09:27:02;;;;;;;2.28;0.60;;;18.70;49.00;;;;;;5017648;28;20065;-59
2022/10/29 09:29:56;;;;;;;1.65;0.60;;;18.50;50.20;;;;;;5018900;28;20549;-59
2022/10/29 09:32:50;;;;;;;6.32;0.98;;;18.40;51.00;;;;;;5026364;28;20040;-60
2022/10/29 09:35:19;;;;;;;2.83;0.77;;;18.20;51.60;;;;;;5027155;28;20163;-60
2022/10/29 09:37:57;;;;;;;2.28;0.50;;;18.20;51.90;;;;;;5026363;28;20114;-59
2022/10/29 09:40:35;;;;;;;3.25;0.77;;;18.10;52.40;;;;;;5026897;28;20752;-60
2022/10/29 09:43:17;;;;;;;2.10;0.73;;;18.10;51.90;;;;;;5027125;28;20040;-60
2022/10/29 09:46:18;;;;;;;1.70;0.60;;;18.00;52.50;;;;;;5026069;28;20033;-59
2022/10/29 09:49:15;;;;;;;2.97;0.90;;;18.00;52.00;;;;;;5024689;28;20469;-60
2022/10/29 09:52:20;;;;;;;4.22;0.88;;;18.00;51.60;;;;;;5023017;28;20041;-59
2022/10/29 09:54:50;;;;;;;2.63;1.27;;;17.90;52.70;;;;;;5035003;28;20029;-60
2022/10/29 09:57:28;;;;;;;3.33;1.00;;;17.90;52.40;;;;;;5026129;28;20037;-59
2022/10/29 10:00:01;;;;;;;2.10;0.70;;;17.90;52.70;;;;;;5026093;28;20050;-59
2022/10/29 10:02:39;;;;;;;2.00;0.55;;;17.80;52.80;;;;;;5025375;28;20689;-60
2022/10/29 10:05:13;;;;;;;2.97;0.85;;;17.90;52.90;;;;;;5026658;28;20029;-60
2022/10/29 10:07:41;;;;;;;1.92;0.80;;;17.80;52.90;;;;;;5026421;28;20089;-60
2022/10/29 10:10:28;;;;;;;4.47;1.20;;;17.70;53.40;;;;;;5025538;28;20033;-60
2022/10/29 10:13:02;;;;;;;3.28;0.90;;;17.60;53.60;;;;;;5026171;28;20394;-61
2022/10/29 10:15:38;;;;;;;2.35;1.63;;;17.50;54.20;;;;;;5026700;28;20390;-61
2022/10/29 10:18:21;;;;;;;2.47;1.23;;;17.40;54.30;;;;;;5010874;28;20041;-60
2022/10/29 10:21:10;;;;;;;4.65;1.20;;;17.30;54.60;;;;;;5024809;28;20017;-60
2022/10/29 10:23:53;;;;;;;2.95;1.30;;;17.20;55.10;;;;;;5027187;28;20080;-61
2022/10/29 10:26:42;;;;;;;3.08;1.33;;;17.10;55.40;;;;;;5014620;28;20379;-61
2022/10/29 10:29:22;;;;;;;3.85;1.58;;;16.90;56.50;;;;;;5026804;28;20022;-61
2022/10/29 10:31:49;;;;;;;6.97;1.73;;;17.00;55.90;;;;;;5025461;28;20048;-61
2022/10/29 10:34:20;;;;;;;3.03;1.42;;;17.00;56.50;;;;;;5029168;28;20728;-61
2022/10/29 10:37:18;;;;;;;3.80;1.10;;;16.90;56.70;;;;;;5030050;28;20037;-61
2022/10/29 10:39:58;;;;;;;3.20;1.13;;;16.80;57.30;;;;;;5010843;28;20163;-60
2022/10/29 10:42:31;;;;;;;4.50;0.82;;;16.90;57.00;;;;;;5014151;28;20025;-61
2022/10/29 10:45:01;;;;;;;2.85;0.85;;;16.80;56.90;;;;;;5015285;28;20553;-61
2022/10/29 10:47:33;;;;;;;2.40;1.08;;;16.70;57.30;;;;;;5013123;28;20049;-61
2022/10/29 10:50:18;;;;;;;2.78;0.90;;;16.60;58.00;;;;;;5029455;28;20083;-60
2022/10/29 10:52:46;;;;;;;2.40;0.85;;;16.50;58.30;;;;;;5028437;28;20061;-60
2022/10/29 10:55:26;;;;;;;3.05;0.85;;;16.40;59.00;;;;;;5029015;28;20037;-60
2022/10/29 10:58:13;;;;;;;2.70;0.60;;;16.30;59.20;;;;;;5029621;28;20030;-61
2022/10/29 11:00:45;;;;;;;1.98;0.80;;;16.10;59.60;;;;;;5029009;28;20026;-60
2022/10/29 11:03:20;;;;;;;3.47;0.73;;;16.00;60.20;;;;;;5027061;28;20116;-60
2022/10/29 11:06:09;;;;;;;2.65;0.60;;;15.90;60.50;;;;;;5029601;28;20041;-60
2022/10/29 11:08:59;;;;;;;5.25;1.20;;;15.90;60.30;;;;;;5030138;28;20034;-61
2022/10/29 11:11:44;;;;;;;1.40;0.68;;;15.90;60.70;;;;;;5016304;28;20672;-60
2022/10/29 11:14:31;;;;;;;4.20;0.80;;;16.00;60.90;;;;;;5029416;28;20029;-60
2022/10/29 11:17:02;;;;;;;2.05;0.80;;;15.80;61.00;;;;;;5029410;28;20665;-60
2022/10/29 11:19:36;;;;;;;2.17;0.70;;;15.70;61.30;;;;;;5027496;28;20040;-61
2022/10/29 11:22:46;;;;;;;2.28;0.70;;;15.60;62.00;;;;;;5027303;28;20029;-60
2022/10/29 11:25:18;;;;;;;4.05;0.60;;;15.60;62.50;;;;;;5017361;28;20099;-60
2022/10/29 11:28:02;;;;;;;1.55;0.70;;;15.60;62.70;;;;;;5029681;28;20064;-60
2022/10/29 11:30:37;;;;;;;4.50;0.80;;;15.50;62.90;;;;;;5044569;28;20034;-61
2022/10/29 11:33:41;;;;;;;1.55;0.73;;;15.40;63.50;;;;;;5028994;28;20648;-60
2022/10/29 11:36:26;;;;;;;3.00;1.00;;;15.40;63.40;;;;;;5029222;28;20098;-60
2022/10/29 11:38:57;;;;;;;3.70;0.98;;;15.30;63.90;;;;;;5009592;28;20060;-60
2022/10/29 11:41:33;;;;;;;2.30;0.82;;;15.50;64.50;;;;;;5026637;28;20032;-61
2022/10/29 11:44:00;;;;;;;3.00;1.15;;;15.50;63.90;;;;;;5027305;28;20528;-61
2022/10/29 11:46:52;;;;;;;1.45;0.68;;;15.50;63.80;;;;;;5027628;28;20044;-60
2022/10/29 11:49:31;;;;;;;3.92;1.10;;;15.50;64.20;;;;;;5028958;28;20026;-61
2022/10/29 11:52:15;;;;;;;1.48;0.90;;;15.40;64.80;;;;;;5028817;28;20060;-60
2022/10/29 11:54:42;;;;;;;3.58;1.33;;;15.40;64.90;;;;;;5027213;28;20029;-62
2022/10/29 11:57:15;;;;;;;2.58;0.80;;;15.40;65.40;;;;;;5028517;28;20040;-60
2022/10/29 12:00:03;;;;;;;3.03;0.80;;;15.40;64.90;;;;;;5026756;28;20040;-61
2022/10/29 12:02:52;;;;;;;2.63;1.02;;;15.50;65.70;;;;;;5028444;28;20048;-60
2022/10/29 12:05:26;;;;;;;1.65;1.20;;;15.50;65.60;;;;;;5028261;28;20082;-64
2022/10/29 12:08:01;;;;;;;2.88;0.82;;;15.60;65.90;;;;;;5028148;28;20021;-60
2022/10/29 12:10:43;;;;;;;1.98;0.80;;;15.60;66.10;;;;;;5008598;28;20036;-61
2022/10/29 12:13:31;;;;;;;2.95;0.60;;;15.60;65.70;;;;;;5022922;28;20040;-61
2022/10/29 12:16:17;;;;;;;2.13;0.90;;;15.50;65.60;;;;;;5016912;28;20036;-60
2022/10/29 12:18:47;;;;;;;1.73;0.75;;;15.40;66.10;;;;;;5028427;28;20033;-60
2022/10/29 12:21:26;;;;;;;3.15;0.60;;;15.40;67.10;;;;;;5028045;28;20024;-60
2022/10/29 12:24:20;;;;;;;4.40;0.73;;;15.40;66.60;;;;;;5027963;28;20034;-60
2022/10/29 12:27:14;;;;;;;3.37;0.97;;;15.40;67.20;;;;;;5027422;28;20034;-60
2022/10/29 12:29:46;;;;;;;3.65;0.93;;;15.60;67.10;;;;;;5027971;28;20753;-61
2022/10/29 12:32:36;;;;;;;6.05;0.90;;;15.80;66.40;;;;;;5026118;28;20033;-60
2022/10/29 12:35:21;;;;;;;1.95;0.50;;;15.90;65.60;;;;;;5026394;28;20402;-60
2022/10/29 12:38:12;;;;;;;2.65;0.82;;;15.80;66.30;;;;;;5027347;28;20029;-60
2022/10/29 12:40:43;;;;;;;0.73;0.55;;;15.60;66.00;;;;;;5027871;28;20087;-60
2022/10/29 12:43:25;;;;;;;5.07;0.73;;;15.50;66.60;;;;;;5026191;28;20040;-62
2022/10/29 12:46:06;;;;;;;2.88;0.60;;;15.30;66.90;;;;;;5026605;28;20029;-62
2022/10/29 12:49:05;;;;;;;1.63;0.63;;;15.20;67.90;;;;;;5027755;28;20033;-62
2022/10/29 12:51:49;;;;;;;4.00;0.82;;;15.10;68.90;;;;;;5022694;28;20065;-61
2022/10/29 12:54:41;;;;;;;1.83;0.60;;;15.10;71.00;;;;;;5026785;28;20021;-61
2022/10/29 12:57:14;;;;;;;3.22;0.68;;;15.10;73.40;;;;;;5007092;28;20064;-61
2022/10/29 12:59:43;;;;;;;3.78;0.70;;;15.00;72.30;;;;;;5027165;28;20033;-62
2022/10/29 13:02:43;;;;;;;2.42;0.80;;;14.90;72.90;;;;;;5027079;28;20032;-61
2022/10/29 13:05:10;;;;;;;4.20;0.65;;;14.70;72.90;;;;;;5024610;28;20022;-62
2022/10/29 13:07:44;;;;;;;1.85;0.52;;;14.70;74.40;;;;;;5027913;28;20082;-61
2022/10/29 13:10:29;;;;;;;3.72;1.00;;;14.60;74.80;;;;;;5027210;28;20032;-61
2022/10/29 13:13:17;;;;;;;3.55;1.42;;;14.60;75.10;;;;;;5027127;28;20092;-62
2022/10/29 13:16:05;;;;;;;1.58;0.52;;;14.50;75.60;;;;;;5028477;28;20040;-63
2022/10/29 13:19:01;;;;;;;1.75;0.50;;;14.40;77.20;;;;;;5026938;28;20107;-62
2022/10/29 13:21:57;;;;;;;1.83;0.73;;;14.40;76.90;;;;;;5026431;28;20155;-62
2022/10/29 13:24:25;;;;;;;1.15;0.40;;;14.40;77.60;;;;;;5023140;28;20042;-60